createdAt,value
2024-04-30T00:01:46.095Z,98484.72
2024-04-30T00:04:47.950Z,98484.72
2024-04-30T00:07:49.669Z,98488.22
2024-04-30T00:10:51.572Z,98475.19
2024-04-30T00:13:53.597Z,98477.81
2024-04-30T00:16:55.295Z,98484.81
2024-04-30T00:19:57.050Z,98479.59
2024-04-30T00:22:58.856Z,98481.34
2024-04-30T00:26:00.588Z,98477.84
2024-04-30T00:29:02.440Z,98470.94
2024-04-30T00:32:04.423Z,98464.84
2024-04-30T00:35:06.148Z,98475.28
2024-04-30T00:38:07.837Z,98465.72
2024-04-30T00:41:09.522Z,98462.22
2024-04-30T00:44:11.139Z,98459.59
2024-04-30T00:47:14.590Z,98452.69
2024-04-30T00:50:16.283Z,98456.13
2024-04-30T00:53:18.608Z,98459.63
2024-04-30T00:56:20.329Z,98452.72
2024-04-30T00:59:21.994Z,98454.44
2024-04-30T01:02:25.874Z,98450.06
2024-04-30T01:05:27.654Z,98439.66
2024-04-30T01:08:29.357Z,98451.81
2024-04-30T01:11:31.275Z,98449.19
2024-04-30T01:14:32.958Z,98455.28
2024-04-30T01:17:34.745Z,98452.69
2024-04-30T01:20:36.463Z,98456.16
2024-04-30T01:23:38.183Z,98457.03
2024-04-30T01:26:39.857Z,98452.69
2024-04-30T01:29:41.517Z,98460.47
2024-04-30T01:32:43.325Z,98449.19
2024-04-30T01:35:45.489Z,98457.03
2024-04-30T01:38:47.177Z,98456.16
2024-04-30T01:41:48.805Z,98445.72
2024-04-30T01:44:50.433Z,98453.53
2024-04-30T01:47:52.241Z,98454.41
2024-04-30T01:50:54.057Z,98448.31
2024-04-30T01:53:55.712Z,98453.56
2024-04-30T01:56:57.442Z,98453.53
2024-04-30T01:59:59.126Z,98451.81
2024-04-30T02:03:00.821Z,98448.31
2024-04-30T02:06:02.530Z,98441.38
2024-04-30T02:09:04.357Z,98430.97
2024-04-30T02:12:06.314Z,98426.63
2024-04-30T02:15:08.228Z,98426.63
2024-04-30T02:18:10.367Z,98416.22
2024-04-30T02:21:12.082Z,98417.06
2024-04-30T02:24:13.773Z,98415.34
2024-04-30T02:27:15.422Z,98406.66
2024-04-30T02:30:42.796Z,98412.72
2024-04-30T02:34:03.224Z,98411.00
2024-04-30T02:37:05.005Z,98410.13
2024-04-30T02:40:07.411Z,98411.00
2024-04-30T02:43:08.938Z,98402.31
2024-04-30T02:46:10.651Z,98404.94
2024-04-30T02:49:12.445Z,98403.19
2024-04-30T02:52:14.180Z,98394.50
2024-04-30T02:55:15.885Z,98394.50
2024-04-30T02:58:17.740Z,98390.16
2024-04-30T03:01:19.491Z,98394.50
2024-04-30T03:04:21.259Z,98384.94
2024-04-30T03:07:23.024Z,98382.34
2024-04-30T03:10:24.901Z,98379.72
2024-04-30T03:13:26.946Z,98378.81
2024-04-30T03:16:28.663Z,98381.41
2024-04-30T03:19:30.495Z,98382.28
2024-04-30T03:22:32.331Z,98380.53
2024-04-30T03:25:34.105Z,98384.84
2024-04-30T03:28:35.974Z,98400.44
2024-04-30T03:31:37.775Z,98385.69
2024-04-30T03:34:39.521Z,98390.91
2024-04-30T03:37:41.215Z,98390.03
2024-04-30T03:40:42.980Z,98396.13
2024-04-30T03:43:44.759Z,98399.59
2024-04-30T03:46:46.389Z,98407.34
2024-04-30T03:49:48.294Z,98415.13
2024-04-30T03:52:50.024Z,98414.22
2024-04-30T03:55:51.691Z,98423.75
2024-04-30T03:58:53.448Z,98430.69
2024-04-30T04:01:55.148Z,98432.41
2024-04-30T04:04:56.902Z,98440.19
2024-04-30T04:07:58.623Z,98439.28
2024-04-30T04:11:19.173Z,98433.19
2024-04-30T04:14:39.509Z,98440.97
2024-04-30T04:17:41.246Z,98444.44
2024-04-30T04:20:42.978Z,98449.66
2024-04-30T04:23:44.642Z,98447.06
2024-04-30T04:26:46.325Z,98447.94
2024-04-30T04:29:47.995Z,98447.97
2024-04-30T04:32:49.756Z,98437.59
2024-04-30T04:35:51.557Z,98435.78
2024-04-30T04:38:53.225Z,98434.06
2024-04-30T04:41:54.924Z,98428.91
2024-04-30T04:44:56.610Z,98421.13
2024-04-30T04:47:58.357Z,98411.59
2024-04-30T04:51:00.361Z,98414.22
2024-04-30T04:54:02.087Z,98409.00
2024-04-30T04:57:03.826Z,98409.88
2024-04-30T05:00:06.010Z,98410.69
2024-04-30T05:03:07.678Z,98412.44
2024-04-30T05:06:09.323Z,98413.28
2024-04-30T05:09:11.068Z,98406.38
2024-04-30T05:12:12.957Z,98406.38
2024-04-30T05:15:14.661Z,98408.16
2024-04-30T05:18:16.455Z,98400.41
2024-04-30T05:21:18.121Z,98390.00
2024-04-30T05:24:19.799Z,98390.03
2024-04-30T05:27:21.487Z,98383.13
2024-04-30T05:30:23.139Z,98385.72
2024-04-30T05:33:27.042Z,98383.16
2024-04-30T05:36:28.765Z,98377.09
2024-04-30T05:39:30.567Z,98382.28
2024-04-30T05:42:32.297Z,98383.16
2024-04-30T05:45:33.999Z,98371.06
2024-04-30T05:48:36.552Z,98365.00
2024-04-30T05:51:40.174Z,98358.06
2024-04-30T05:54:41.853Z,98349.38
2024-04-30T05:57:43.525Z,98354.59
2024-04-30T06:00:45.214Z,98358.91
2024-04-30T06:03:47.017Z,98357.19
2024-04-30T06:06:48.733Z,98353.69
2024-04-30T06:09:50.391Z,98336.31
2024-04-30T06:12:52.124Z,98337.16
2024-04-30T06:15:53.783Z,98331.03
2024-04-30T06:18:55.624Z,98319.72
2024-04-30T06:21:57.313Z,98325.78
2024-04-30T06:24:59.039Z,98318.78
2024-04-30T06:28:00.776Z,98330.88
2024-04-30T06:31:02.546Z,98336.88
2024-04-30T06:34:05.224Z,98339.47
2024-04-30T06:37:07.055Z,98341.13
2024-04-30T06:40:09.145Z,98341.91
2024-04-30T06:43:11.015Z,98338.31
2024-04-30T06:46:15.039Z,98352.09
2024-04-30T06:49:16.772Z,98354.56
2024-04-30T06:52:18.511Z,98366.66
2024-04-30T06:55:20.278Z,98366.50
2024-04-30T06:58:22.033Z,98368.13
2024-04-30T07:01:23.857Z,98380.13
2024-04-30T07:04:25.625Z,98382.56
2024-04-30T07:07:27.398Z,98394.53
2024-04-30T07:10:29.135Z,98397.00
2024-04-30T07:13:30.859Z,98398.50
2024-04-30T07:16:39.710Z,98401.88
2024-04-30T07:19:44.716Z,98407.75
2024-04-30T07:22:46.724Z,98400.50
2024-04-30T07:25:48.534Z,98404.53
2024-04-30T07:28:50.286Z,98417.25
2024-04-30T07:31:52.443Z,98421.34
2024-04-30T07:34:54.191Z,98436.72
2024-04-30T07:37:55.867Z,98433.75
2024-04-30T07:40:57.553Z,98443.88
2024-04-30T07:43:59.226Z,98443.38
2024-04-30T07:47:00.940Z,98450.59
2024-04-30T07:50:02.763Z,98469.44
2024-04-30T07:53:04.583Z,98469.22
2024-04-30T07:56:06.502Z,98472.22
2024-04-30T07:59:08.187Z,98470.88
2024-04-30T08:02:13.891Z,98474.69
2024-04-30T08:05:16.362Z,98472.34
2024-04-30T08:08:19.981Z,98476.03
2024-04-30T08:11:23.164Z,98483.31
2024-04-30T08:14:24.938Z,98489.75
2024-04-30T08:17:26.651Z,98493.16
2024-04-30T08:20:31.135Z,98496.88
2024-04-30T08:23:32.814Z,98493.41
2024-04-30T08:26:36.655Z,98500.03
2024-04-30T08:29:38.377Z,98501.31
2024-04-30T08:32:40.619Z,98492.69
2024-04-30T08:35:42.890Z,98493.28
2024-04-30T08:38:44.572Z,98506.94
2024-04-30T08:41:47.335Z,98506.81
2024-04-30T08:44:51.556Z,98515.53
2024-04-30T08:47:55.131Z,98514.03
2024-04-30T08:50:56.936Z,98516.59
2024-04-30T08:53:59.082Z,98523.81
2024-04-30T08:57:00.761Z,98512.88
2024-04-30T09:00:02.615Z,98508.78
2024-04-30T09:03:04.913Z,98518.88
2024-04-30T09:06:06.827Z,98513.81
2024-04-30T09:09:12.335Z,98524.41
2024-04-30T09:12:14.052Z,98523.16
2024-04-30T09:15:18.500Z,98518.81
2024-04-30T09:18:20.262Z,98527.38
2024-04-30T09:21:28.474Z,98522.56
2024-04-30T09:24:30.237Z,98526.34
2024-04-30T09:27:33.048Z,98528.06
2024-04-30T09:30:34.801Z,98526.66
2024-04-30T09:33:36.594Z,98528.97
2024-04-30T09:36:38.737Z,98530.88
2024-04-30T09:39:40.405Z,98525.50
2024-04-30T09:42:42.116Z,98513.00
2024-04-30T09:45:44.109Z,98515.94
2024-04-30T09:48:45.783Z,98511.41
2024-04-30T09:51:48.189Z,98506.50
2024-04-30T09:54:49.995Z,98510.47
2024-04-30T09:57:51.793Z,98501.19
2024-04-30T10:00:55.591Z,98492.56
2024-04-30T10:03:57.307Z,98485.06
2024-04-30T10:06:58.987Z,98481.75
2024-04-30T10:10:01.818Z,98469.34
2024-04-30T10:13:11.034Z,98464.31
2024-04-30T10:16:16.190Z,98465.03
2024-04-30T10:19:17.987Z,98474.53
2024-04-30T10:22:19.880Z,98462.59
2024-04-30T10:25:22.625Z,98449.78
2024-04-30T10:28:24.625Z,98459.22
2024-04-30T10:31:26.656Z,98457.50
2024-04-30T10:34:28.382Z,98450.38
2024-04-30T10:37:30.481Z,98441.09
2024-04-30T10:40:32.231Z,98427.72
2024-04-30T10:43:34.033Z,98426.25
2024-04-30T10:46:35.854Z,98419.78
2024-04-30T10:49:37.585Z,98413.66
2024-04-30T10:52:39.398Z,98401.34
2024-04-30T10:55:43.154Z,98400.09
2024-04-30T10:58:59.136Z,98396.25
2024-04-30T11:02:00.978Z,98389.72
2024-04-30T11:05:16.085Z,98383.81
2024-04-30T11:08:23.900Z,98389.63
2024-04-30T11:11:44.096Z,98393.72
2024-04-30T11:14:48.364Z,98385.66
2024-04-30T11:17:50.179Z,98381.47
2024-04-30T11:20:51.960Z,98378.88
2024-04-30T11:23:53.608Z,98368.13
2024-04-30T11:26:55.261Z,98367.91
2024-04-30T11:29:56.928Z,98368.63
2024-04-30T11:32:58.662Z,98373.63
2024-04-30T11:36:00.424Z,98361.88
2024-04-30T11:39:02.115Z,98365.28
2024-04-30T11:42:13.768Z,98362.81
2024-04-30T11:45:26.656Z,98347.47
2024-04-30T11:48:30.348Z,98351.78
2024-04-30T11:51:32.086Z,98351.47
2024-04-30T11:54:35.092Z,98336.63
2024-04-30T11:57:37.930Z,98335.53
2024-04-30T12:00:40.599Z,98331.28
2024-04-30T12:03:42.489Z,98320.31
2024-04-30T12:06:44.243Z,98331.09
2024-04-30T12:09:45.966Z,98334.47
2024-04-30T12:12:47.754Z,98339.97
2024-04-30T12:15:51.259Z,98345.25
2024-04-30T12:18:54.069Z,98340.47
2024-04-30T12:21:55.771Z,98332.03
2024-04-30T12:24:57.552Z,98338.13
2024-04-30T12:27:59.186Z,98324.00
2024-04-30T12:31:00.945Z,98314.34
2024-04-30T12:34:02.649Z,98316.03
2024-04-30T12:37:05.331Z,98317.50
2024-04-30T12:40:08.790Z,98302.72
2024-04-30T12:43:10.678Z,98312.78
2024-04-30T12:46:12.376Z,98302.06
2024-04-30T12:49:14.127Z,98291.28
2024-04-30T12:52:15.925Z,98305.25
2024-04-30T12:55:17.792Z,98286.38
2024-04-30T12:58:19.797Z,98286.84
2024-04-30T13:01:24.286Z,98275.44
2024-04-30T13:04:27.854Z,98284.38
2024-04-30T13:07:31.047Z,98278.38
2024-04-30T13:10:32.850Z,98280.53
2024-04-30T13:13:35.805Z,98273.03
2024-04-30T13:16:42.548Z,98280.06
2024-04-30T13:19:44.394Z,98275.53
2024-04-30T13:22:46.172Z,98275.06
2024-04-30T13:25:47.890Z,98276.94
2024-04-30T13:28:49.652Z,98263.94
2024-04-30T13:31:51.372Z,98266.94
2024-04-30T13:34:53.174Z,98267.09
2024-04-30T13:37:54.865Z,98259.75
2024-04-30T13:40:56.628Z,98254.06
2024-04-30T13:43:58.424Z,98250.09
2024-04-30T13:47:00.160Z,98245.16
2024-04-30T13:50:01.866Z,98232.75
2024-04-30T13:53:03.810Z,98228.38
2024-04-30T13:56:06.121Z,98226.66
2024-04-30T13:59:09.335Z,98222.50
2024-04-30T14:02:14.951Z,98231.22
2024-04-30T14:05:16.907Z,98224.69
2024-04-30T14:08:18.726Z,98210.06
2024-04-30T14:11:21.074Z,98217.16
2024-04-30T14:14:22.788Z,98206.75
2024-04-30T14:17:24.498Z,98193.59
2024-04-30T14:20:26.189Z,98191.50
2024-04-30T14:23:29.477Z,98176.97
2024-04-30T14:26:31.118Z,98171.72
2024-04-30T14:29:32.790Z,98170.56
2024-04-30T14:32:34.590Z,98168.88
2024-04-30T14:35:56.270Z,98175.28
2024-04-30T14:38:57.958Z,98169.50
2024-04-30T14:42:00.627Z,98165.97
2024-04-30T14:45:02.642Z,98162.00
2024-04-30T14:48:04.679Z,98164.97
2024-04-30T14:51:06.361Z,98158.22
2024-04-30T14:54:08.080Z,98154.28
2024-04-30T14:57:09.807Z,98144.72
2024-04-30T15:00:12.043Z,98135.34
2024-04-30T15:03:18.645Z,98131.63
2024-04-30T15:06:20.626Z,98130.59
2024-04-30T15:09:22.294Z,98137.41
2024-04-30T15:12:23.949Z,98131.94
2024-04-30T15:15:25.573Z,98127.00
2024-04-30T15:18:27.378Z,98118.03
2024-04-30T15:21:29.090Z,98116.81
2024-04-30T15:24:30.776Z,98111.41
2024-04-30T15:27:32.429Z,98111.91
2024-04-30T15:30:34.199Z,98097.84
2024-04-30T15:33:36.595Z,98090.91
2024-04-30T15:36:43.257Z,98096.22
2024-04-30T15:39:45.960Z,98094.59
2024-04-30T15:42:47.727Z,98087.88
2024-04-30T15:45:49.352Z,98088.97
2024-04-30T15:48:52.695Z,98088.81
2024-04-30T15:51:54.662Z,98089.69
2024-04-30T15:54:59.368Z,98099.31
2024-04-30T15:58:02.867Z,98089.44
2024-04-30T16:01:04.938Z,98086.78
2024-04-30T16:04:06.663Z,98081.28
2024-04-30T16:07:08.411Z,98085.09
2024-04-30T16:10:10.208Z,98075.00
2024-04-30T16:13:11.950Z,98066.28
2024-04-30T16:16:18.395Z,98075.22
2024-04-30T16:19:23.289Z,98074.19
2024-04-30T16:22:25.183Z,98077.31
2024-04-30T16:25:26.888Z,98078.75
2024-04-30T16:28:28.661Z,98072.16
2024-04-30T16:34:31.922Z,98066.72
2024-04-30T16:37:33.911Z,98063.66
2024-04-30T16:40:35.571Z,98063.66
2024-04-30T16:43:37.303Z,98062.25
2024-04-30T16:46:41.730Z,98058.44
2024-04-30T16:49:43.567Z,98058.25
2024-04-30T16:52:45.328Z,98060.03
2024-04-30T16:55:47.021Z,98066.94
2024-04-30T16:58:51.486Z,98058.56
2024-04-30T17:01:54.408Z,98054.81
2024-04-30T17:04:56.186Z,98039.50
2024-04-30T17:07:57.895Z,98035.09
2024-04-30T17:10:59.605Z,98037.69
2024-04-30T17:14:01.292Z,98026.63
2024-04-30T17:17:03.049Z,98021.34
2024-04-30T17:20:05.150Z,98023.97
2024-04-30T17:23:06.828Z,98013.78
2024-04-30T17:26:09.170Z,98013.72
2024-04-30T17:29:10.958Z,98000.25
2024-04-30T17:32:12.806Z,98002.13
2024-04-30T17:35:14.583Z,98002.00
2024-04-30T17:38:16.335Z,97999.09
2024-04-30T17:41:27.687Z,97986.50
2024-04-30T17:44:29.431Z,97989.91
2024-04-30T17:47:31.151Z,97985.47
2024-04-30T17:50:32.908Z,97972.00
2024-04-30T17:53:34.689Z,97970.31
2024-04-30T17:56:39.606Z,97967.56
2024-04-30T17:59:41.289Z,97967.22
2024-04-30T18:02:42.962Z,97961.81
2024-04-30T18:05:44.630Z,97956.41
2024-04-30T18:08:47.208Z,97940.72
2024-04-30T18:11:50.248Z,97943.28
2024-04-30T18:14:52.223Z,97940.47
2024-04-30T18:17:54.370Z,97923.50
2024-04-30T18:20:56.061Z,97922.44
2024-04-30T18:23:57.658Z,97916.03
2024-04-30T18:26:59.364Z,97913.16
2024-04-30T18:30:00.996Z,97903.22
2024-04-30T18:33:02.707Z,97901.03
2024-04-30T18:36:04.518Z,97898.25
2024-04-30T18:39:06.257Z,97889.31
2024-04-30T18:42:07.803Z,97878.22
2024-04-30T18:45:09.460Z,97886.38
2024-04-30T18:48:11.773Z,97873.75
2024-04-30T18:51:13.839Z,97868.03
2024-04-30T18:54:15.676Z,97862.22
2024-04-30T18:57:17.300Z,97864.59
2024-04-30T19:00:19.049Z,97868.28
2024-04-30T19:03:21.649Z,97858.94
2024-04-30T19:06:23.489Z,97864.63
2024-04-30T19:09:25.056Z,97859.00
2024-04-30T19:12:26.803Z,97857.59
2024-04-30T19:15:28.473Z,97864.31
2024-04-30T19:18:30.579Z,97853.44
2024-04-30T19:21:32.424Z,97852.22
2024-04-30T19:24:34.687Z,97862.25
2024-04-30T19:27:36.474Z,97866.59
2024-04-30T19:30:38.225Z,97863.34
2024-04-30T19:33:42.679Z,97870.56
2024-04-30T19:36:44.482Z,97862.19
2024-04-30T19:39:46.436Z,97862.69
2024-04-30T19:42:48.034Z,97860.91
2024-04-30T19:45:50.751Z,97859.13
2024-04-30T19:48:53.227Z,97862.00
2024-04-30T19:51:56.145Z,97864.06
2024-04-30T19:54:59.233Z,97852.13
2024-04-30T19:58:00.976Z,97854.38
2024-04-30T20:01:02.784Z,97854.78
2024-04-30T20:04:04.610Z,97855.09
2024-04-30T20:07:06.625Z,97859.13
2024-04-30T20:10:08.232Z,97846.91
2024-04-30T20:13:09.938Z,97853.97
2024-04-30T20:16:11.713Z,97841.88
2024-04-30T20:19:13.853Z,97843.13
2024-04-30T20:22:15.527Z,97842.72
2024-04-30T20:25:17.218Z,97849.00
2024-04-30T20:28:18.872Z,97843.19
2024-04-30T20:31:20.600Z,97839.16
2024-04-30T20:34:22.341Z,97842.16
2024-04-30T20:37:24.108Z,97833.44
2024-04-30T20:40:26.054Z,97836.19
2024-04-30T20:43:27.648Z,97848.13
2024-04-30T20:46:29.287Z,97844.69
2024-04-30T20:49:31.161Z,97837.94
2024-04-30T20:52:32.822Z,97841.34
2024-04-30T20:55:34.521Z,97854.59
2024-04-30T20:58:36.385Z,97846.88
2024-04-30T21:01:38.144Z,97844.44
2024-04-30T21:04:39.933Z,97848.25
2024-04-30T21:07:41.651Z,97840.63
2024-04-30T21:10:44.382Z,97827.59
2024-04-30T21:13:46.702Z,97833.69
2024-04-30T21:16:48.393Z,97839.81
2024-04-30T21:19:52.330Z,97840.19
2024-04-30T21:22:54.062Z,97828.97
2024-04-30T21:25:55.752Z,97828.22
2024-04-30T21:28:57.417Z,97825.72
2024-04-30T21:31:59.088Z,97829.47
2024-04-30T21:35:03.051Z,97829.75
2024-04-30T21:38:07.947Z,97829.13
2024-04-30T21:41:09.599Z,97817.03
2024-04-30T21:44:11.343Z,97823.41
2024-04-30T21:47:14.936Z,97811.34
2024-04-30T21:50:16.618Z,97810.13
2024-04-30T21:53:18.303Z,97807.56
2024-04-30T21:56:19.991Z,97801.53
2024-04-30T21:59:21.656Z,97809.19
2024-04-30T22:02:23.469Z,97813.66
2024-04-30T22:05:25.178Z,97814.63
2024-04-30T22:08:26.897Z,97806.19
2024-04-30T22:11:28.654Z,97798.50
2024-04-30T22:14:30.407Z,97791.72
2024-04-30T22:17:32.194Z,97794.38
2024-04-30T22:20:33.968Z,97796.31
2024-04-30T22:23:36.927Z,97790.16
2024-04-30T22:26:38.618Z,97784.88
2024-04-30T22:29:40.261Z,97785.94
2024-04-30T22:32:42.024Z,97780.91
2024-04-30T22:35:43.770Z,97770.53
2024-04-30T22:38:45.424Z,97770.66
2024-04-30T22:41:47.096Z,97761.25
2024-04-30T22:44:48.792Z,97757.88
2024-04-30T22:47:51.014Z,97759.69
2024-04-30T22:50:52.785Z,97756.38
2024-04-30T22:53:55.170Z,97757.25
2024-04-30T22:56:56.928Z,97748.66
2024-04-30T22:59:58.645Z,97748.66
2024-04-30T23:03:00.392Z,97743.38
2024-04-30T23:06:02.263Z,97744.25
2024-04-30T23:09:04.066Z,97742.53
2024-04-30T23:12:05.917Z,97739.13
2024-04-30T23:15:07.665Z,97736.69
2024-04-30T23:18:09.539Z,97735.00
2024-04-30T23:21:11.498Z,97738.78
2024-04-30T23:24:13.191Z,97736.16
2024-04-30T23:27:21.430Z,97730.19
2024-04-30T23:30:23.155Z,97724.78
2024-04-30T23:33:24.876Z,97732.69
2024-04-30T23:36:26.673Z,97730.94
2024-04-30T23:39:28.539Z,97729.28
2024-04-30T23:42:31.693Z,97723.16
2024-04-30T23:45:33.458Z,97718.75
2024-04-30T23:48:35.144Z,97725.66
2024-04-30T23:51:36.939Z,97718.78
2024-04-30T23:54:38.706Z,97707.63
2024-04-30T23:57:40.371Z,97705.75
